createdAt,value
2023-09-14T00:00:16.299Z,99.99
2023-09-14T00:01:16.394Z,99.99
2023-09-14T00:02:16.259Z,99.99
2023-09-14T00:03:16.558Z,99.99
2023-09-14T00:04:16.552Z,99.99
2023-09-14T00:05:16.422Z,99.99
2023-09-14T00:06:17.191Z,99.99
2023-09-14T00:07:17.143Z,99.99
2023-09-14T00:08:17.082Z,99.99
2023-09-14T00:09:16.198Z,99.99
2023-09-14T00:10:16.167Z,99.99
2023-09-14T00:11:16.150Z,99.99
2023-09-14T00:12:16.134Z,99.99
2023-09-14T00:13:16.124Z,99.99
2023-09-14T00:14:16.113Z,99.99
2023-09-14T00:15:16.120Z,99.99
2023-09-14T00:16:16.176Z,99.99
2023-09-14T00:17:16.088Z,99.99
2023-09-14T00:18:16.080Z,99.98
2023-09-14T00:19:16.117Z,99.98
2023-09-14T00:20:16.059Z,99.98
2023-09-14T00:21:16.086Z,99.99
2023-09-14T00:22:16.044Z,99.99
2023-09-14T00:23:16.008Z,99.99
2023-09-14T00:24:16.005Z,99.99
2023-09-14T00:25:16.000Z,99.99
2023-09-14T00:26:15.991Z,99.99
2023-09-14T00:27:16.692Z,99.99
2023-09-14T00:28:16.144Z,99.99
2023-09-14T00:29:15.942Z,99.99
2023-09-14T00:30:15.938Z,99.99
2023-09-14T00:31:15.958Z,99.99
2023-09-14T00:32:15.941Z,99.99
2023-09-14T00:33:15.945Z,99.99
2023-09-14T00:34:15.908Z,99.99
2023-09-14T00:35:15.876Z,99.99
2023-09-14T00:36:15.891Z,99.99
2023-09-14T00:37:15.857Z,99.99
2023-09-14T00:38:15.868Z,99.99
2023-09-14T00:39:15.827Z,99.99
2023-09-14T00:40:15.824Z,99.99
2023-09-14T00:41:15.817Z,99.99
2023-09-14T00:42:15.796Z,99.99
2023-09-14T00:43:15.802Z,99.99
2023-09-14T00:44:15.784Z,99.99
2023-09-14T00:45:15.777Z,99.99
2023-09-14T00:46:15.769Z,99.99
2023-09-14T00:47:16.579Z,99.99
2023-09-14T00:48:16.465Z,99.99
2023-09-14T00:49:16.648Z,99.99
2023-09-14T00:50:15.758Z,99.99
2023-09-14T00:51:15.690Z,99.99
2023-09-14T00:52:15.692Z,99.99
2023-09-14T00:53:15.678Z,99.99
2023-09-14T00:54:15.681Z,99.99
2023-09-14T00:55:15.651Z,99.99
2023-09-14T00:56:15.827Z,99.99
2023-09-14T00:57:15.625Z,99.99
2023-09-14T00:58:15.633Z,99.99
2023-09-14T00:59:15.625Z,99.99
2023-09-14T01:00:15.596Z,99.99
2023-09-14T01:01:15.838Z,99.99
2023-09-14T01:02:15.611Z,99.99
2023-09-14T01:03:15.817Z,99.99
2023-09-14T01:04:15.737Z,99.99
2023-09-14T01:05:15.558Z,99.99
2023-09-14T01:06:15.524Z,99.99
2023-09-14T01:07:16.479Z,99.99
2023-09-14T01:08:15.518Z,99.99
2023-09-14T01:09:15.520Z,99.99
2023-09-14T01:10:15.498Z,99.99
2023-09-14T01:11:15.491Z,99.99
2023-09-14T01:12:15.471Z,99.99
2023-09-14T01:13:15.453Z,99.99
2023-09-14T01:14:15.470Z,99.99
2023-09-14T01:15:15.432Z,99.99
2023-09-14T01:16:15.461Z,99.99
2023-09-14T01:17:15.411Z,99.99
2023-09-14T01:18:15.399Z,99.99
2023-09-14T01:19:15.390Z,99.99
2023-09-14T01:20:15.376Z,99.99
2023-09-14T01:21:15.390Z,99.99
2023-09-14T01:22:15.358Z,99.99
2023-09-14T01:23:15.336Z,99.99
2023-09-14T01:24:15.336Z,99.99
2023-09-14T01:25:15.346Z,99.99
2023-09-14T01:26:15.307Z,99.99
2023-09-14T01:27:15.301Z,99.99
2023-09-14T01:28:16.248Z,99.99
2023-09-14T01:29:16.143Z,99.99
2023-09-14T01:30:15.312Z,99.99
2023-09-14T01:31:15.255Z,99.99
2023-09-14T01:32:15.249Z,99.99
2023-09-14T01:33:15.237Z,99.99
2023-09-14T01:34:15.295Z,99.99
2023-09-14T01:35:15.222Z,99.99
2023-09-14T01:36:15.217Z,99.99
2023-09-14T01:37:15.264Z,99.99
2023-09-14T01:38:15.180Z,99.99
2023-09-14T01:39:15.201Z,99.99
2023-09-14T01:40:15.222Z,99.99
2023-09-14T01:41:15.174Z,99.99
2023-09-14T01:42:15.147Z,99.99
2023-09-14T01:43:15.122Z,99.99
2023-09-14T01:44:15.104Z,99.99
2023-09-14T01:45:15.100Z,99.99
2023-09-14T01:46:15.189Z,99.99
2023-09-14T01:47:15.067Z,99.99
2023-09-14T01:48:15.352Z,99.99
2023-09-14T01:49:15.983Z,99.99
2023-09-14T01:50:15.103Z,99.99
2023-09-14T01:51:15.036Z,99.99
2023-09-14T01:52:15.022Z,99.99
2023-09-14T01:53:15.012Z,99.99
2023-09-14T01:54:14.992Z,99.99
2023-09-14T01:55:14.987Z,99.99
2023-09-14T01:56:14.966Z,99.99
2023-09-14T01:57:14.955Z,99.99
2023-09-14T01:58:14.952Z,99.99
2023-09-14T01:59:14.953Z,99.99
2023-09-14T02:00:14.924Z,99.99
2023-09-14T02:01:14.957Z,99.99
2023-09-14T02:02:14.911Z,99.99
2023-09-14T02:03:14.889Z,99.99
2023-09-14T02:04:14.921Z,99.99
2023-09-14T02:05:14.942Z,99.99
2023-09-14T02:06:15.061Z,99.99
2023-09-14T02:07:14.855Z,99.99
2023-09-14T02:08:14.840Z,99.99
2023-09-14T02:09:15.628Z,99.99
2023-09-14T02:10:15.759Z,99.99
2023-09-14T02:11:14.870Z,99.99
2023-09-14T02:12:14.797Z,99.99
2023-09-14T02:13:14.801Z,99.99
2023-09-14T02:14:14.820Z,99.99
2023-09-14T02:15:14.790Z,99.99
2023-09-14T02:16:14.848Z,99.99
2023-09-14T02:17:14.749Z,99.99
2023-09-14T02:18:14.721Z,99.99
2023-09-14T02:19:14.796Z,99.99
2023-09-14T02:20:14.722Z,99.99
2023-09-14T02:21:14.715Z,99.99
2023-09-14T02:22:14.692Z,99.99
2023-09-14T02:23:14.670Z,99.99
2023-09-14T02:24:14.652Z,99.99
2023-09-14T02:25:14.682Z,99.99
2023-09-14T02:26:14.638Z,99.99
2023-09-14T02:27:14.638Z,99.99
2023-09-14T02:28:14.856Z,99.99
2023-09-14T02:29:14.608Z,99.99
2023-09-14T02:30:14.818Z,99.99
2023-09-14T02:31:14.671Z,99.99
2023-09-14T02:32:14.583Z,99.99
2023-09-14T02:33:14.609Z,99.99
2023-09-14T02:34:14.667Z,99.99
2023-09-14T02:35:14.530Z,99.99
2023-09-14T02:36:14.524Z,99.99
2023-09-14T02:37:14.536Z,99.99
2023-09-14T02:38:14.525Z,99.99
2023-09-14T02:39:14.511Z,99.99
2023-09-14T02:40:14.560Z,99.99
2023-09-14T02:41:14.475Z,99.99
2023-09-14T02:42:14.469Z,99.99
2023-09-14T02:43:14.534Z,99.99
2023-09-14T02:44:14.452Z,99.99
2023-09-14T02:45:14.468Z,99.99
2023-09-14T02:46:14.510Z,99.99
2023-09-14T02:47:14.415Z,99.99
2023-09-14T02:48:14.405Z,99.99
2023-09-14T02:49:14.413Z,99.99
2023-09-14T02:50:15.242Z,99.99
2023-09-14T02:51:14.399Z,99.99
2023-09-14T02:52:14.384Z,99.99
2023-09-14T02:53:14.341Z,99.99
2023-09-14T02:54:14.344Z,99.99
2023-09-14T02:55:14.381Z,99.99
2023-09-14T02:56:14.320Z,99.99
2023-09-14T02:57:14.294Z,99.99
2023-09-14T02:58:14.307Z,99.99
2023-09-14T02:59:14.274Z,99.99
2023-09-14T03:00:14.282Z,99.99
2023-09-14T03:01:14.345Z,99.99
2023-09-14T03:02:14.264Z,99.99
2023-09-14T03:03:14.309Z,99.99
2023-09-14T03:04:14.325Z,99.99
2023-09-14T03:05:14.247Z,99.99
2023-09-14T03:06:14.213Z,99.99
2023-09-14T03:07:14.252Z,99.99
2023-09-14T03:08:14.179Z,99.99
2023-09-14T03:09:14.174Z,99.99
2023-09-14T03:10:15.206Z,99.99
2023-09-14T03:11:14.181Z,99.99
2023-09-14T03:12:14.157Z,99.99
2023-09-14T03:13:14.154Z,99.99
2023-09-14T03:14:14.208Z,99.99
2023-09-14T03:15:14.107Z,99.99
2023-09-14T03:16:14.223Z,99.99
2023-09-14T03:17:15.537Z,99.99
2023-09-14T03:18:14.072Z,99.99
2023-09-14T03:19:14.090Z,99.99
2023-09-14T03:20:14.092Z,99.99
2023-09-14T03:21:14.044Z,99.99
2023-09-14T03:22:14.062Z,99.99
2023-09-14T03:23:14.033Z,99.99
2023-09-14T03:24:13.994Z,99.99
2023-09-14T03:25:14.012Z,99.99
2023-09-14T03:26:13.970Z,99.99
2023-09-14T03:27:13.987Z,99.99
2023-09-14T03:28:14.040Z,99.99
2023-09-14T03:29:13.944Z,99.99
2023-09-14T03:30:13.968Z,99.99
2023-09-14T03:31:14.621Z,99.99
2023-09-14T03:32:14.514Z,99.99
2023-09-14T03:33:13.918Z,99.99
2023-09-14T03:34:13.937Z,99.99
2023-09-14T03:35:13.878Z,99.99
2023-09-14T03:36:13.884Z,99.99
2023-09-14T03:37:13.901Z,99.99
2023-09-14T03:38:13.849Z,99.99
2023-09-14T03:39:13.904Z,99.99
2023-09-14T03:40:13.906Z,99.99
2023-09-14T03:41:13.823Z,99.99
2023-09-14T03:42:13.792Z,99.99
2023-09-14T03:43:13.838Z,99.99
2023-09-14T03:44:13.796Z,99.99
2023-09-14T03:45:13.826Z,99.99
2023-09-14T03:46:13.852Z,99.99
2023-09-14T03:47:13.751Z,99.99
2023-09-14T03:48:13.725Z,99.99
2023-09-14T03:49:13.763Z,99.99
2023-09-14T03:50:13.729Z,99.99
2023-09-14T03:51:13.856Z,99.99
2023-09-14T03:52:14.501Z,99.99
2023-09-14T03:53:13.707Z,99.99
2023-09-14T03:54:13.662Z,99.99
2023-09-14T03:55:13.712Z,99.99
2023-09-14T03:56:13.646Z,99.99
2023-09-14T03:57:13.740Z,99.99
2023-09-14T03:58:13.673Z,99.99
2023-09-14T03:59:13.614Z,99.99
2023-09-14T04:00:13.608Z,99.99
2023-09-14T04:01:13.616Z,99.99
2023-09-14T04:02:13.596Z,99.99
2023-09-14T04:03:13.649Z,99.99
2023-09-14T04:04:13.660Z,99.91
2023-09-14T04:05:13.537Z,99.86
2023-09-14T04:06:13.663Z,99.86
2023-09-14T04:07:14.196Z,99.76
2023-09-14T04:08:13.517Z,99.76
2023-09-14T04:09:13.499Z,99.66
2023-09-14T04:10:13.568Z,99.66
2023-09-14T04:11:13.493Z,99.55
2023-09-14T04:12:14.315Z,99.55
2023-09-14T04:13:14.239Z,99.55
2023-09-14T04:14:13.462Z,99.55
2023-09-14T04:15:13.426Z,99.55
2023-09-14T04:16:13.607Z,99.45
2023-09-14T04:17:13.408Z,99.45
2023-09-14T04:18:13.399Z,99.45
2023-09-14T04:19:13.411Z,99.30
2023-09-14T04:20:13.383Z,99.30
2023-09-14T04:21:13.355Z,99.20
2023-09-14T04:22:13.422Z,99.20
2023-09-14T04:23:13.349Z,99.10
2023-09-14T04:24:13.338Z,98.99
2023-09-14T04:25:13.397Z,98.99
2023-09-14T04:26:13.308Z,98.99
2023-09-14T04:27:13.318Z,98.94
2023-09-14T04:28:13.594Z,98.94
2023-09-14T04:29:13.276Z,98.94
2023-09-14T04:30:13.264Z,98.83
2023-09-14T04:31:13.350Z,98.83
2023-09-14T04:32:14.217Z,98.74
2023-09-14T04:33:13.404Z,98.69
2023-09-14T04:34:13.297Z,98.69
2023-09-14T04:35:13.220Z,98.58
2023-09-14T04:36:13.214Z,98.53
2023-09-14T04:37:13.203Z,98.53
2023-09-14T04:38:13.182Z,98.43
2023-09-14T04:39:13.163Z,98.33
2023-09-14T04:40:13.174Z,98.22
2023-09-14T04:41:13.135Z,98.22
2023-09-14T04:42:13.112Z,98.07
2023-09-14T04:43:13.153Z,98.07
2023-09-14T04:44:13.116Z,98.07
2023-09-14T04:45:13.135Z,98.07
2023-09-14T04:46:13.196Z,98.07
2023-09-14T04:47:13.095Z,98.18
2023-09-14T04:48:13.096Z,98.18
2023-09-14T04:49:13.081Z,98.28
2023-09-14T04:50:13.031Z,98.28
2023-09-14T04:51:13.036Z,98.28
2023-09-14T04:52:13.276Z,98.38
2023-09-14T04:53:13.959Z,98.38
2023-09-14T04:54:13.033Z,98.38
2023-09-14T04:55:13.050Z,98.38
2023-09-14T04:56:12.973Z,98.38
2023-09-14T04:57:12.946Z,98.38
2023-09-14T04:58:12.999Z,98.28
2023-09-14T04:59:12.960Z,98.18
2023-09-14T05:00:12.933Z,98.07
2023-09-14T05:01:13.004Z,97.97
2023-09-14T05:02:12.896Z,97.97
2023-09-14T05:03:12.879Z,98.07
2023-09-14T05:04:12.993Z,98.07
2023-09-14T05:05:12.850Z,98.07
2023-09-14T05:06:12.848Z,98.07
2023-09-14T05:07:12.894Z,98.07
2023-09-14T05:08:12.806Z,98.07
2023-09-14T05:09:12.811Z,97.97
2023-09-14T05:10:12.821Z,97.97
2023-09-14T05:11:12.776Z,97.97
2023-09-14T05:12:12.792Z,97.87
2023-09-14T05:13:13.641Z,97.77
2023-09-14T05:14:12.791Z,97.77
2023-09-14T05:15:12.803Z,97.77
2023-09-14T05:16:12.803Z,97.87
2023-09-14T05:17:12.720Z,97.82
2023-09-14T05:18:12.734Z,97.87
2023-09-14T05:19:12.749Z,97.72
2023-09-14T05:20:12.694Z,97.82
2023-09-14T05:21:12.692Z,97.82
2023-09-14T05:22:12.693Z,97.82
2023-09-14T05:23:12.668Z,97.82
2023-09-14T05:24:12.654Z,97.72
2023-09-14T05:25:12.721Z,97.62
2023-09-14T05:26:12.616Z,97.41
2023-09-14T05:27:12.629Z,97.31
2023-09-14T05:28:12.681Z,97.31
2023-09-14T05:29:12.602Z,97.31
2023-09-14T05:30:12.622Z,97.31
2023-09-14T05:31:12.740Z,97.27
2023-09-14T05:32:12.553Z,97.37
2023-09-14T05:33:12.774Z,97.27
2023-09-14T05:34:12.624Z,97.16
2023-09-14T05:35:13.246Z,97.11
2023-09-14T05:36:12.524Z,97.00
2023-09-14T05:37:12.566Z,97.00
2023-09-14T05:38:12.519Z,96.96
2023-09-14T05:39:12.483Z,96.96
2023-09-14T05:40:13.618Z,96.86
2023-09-14T05:41:12.461Z,96.75
2023-09-14T05:42:12.458Z,96.75
2023-09-14T05:43:12.584Z,96.75
2023-09-14T05:44:12.417Z,96.75
2023-09-14T05:45:12.410Z,96.75
2023-09-14T05:46:13.328Z,96.81
2023-09-14T05:47:12.454Z,96.71
2023-09-14T05:48:12.449Z,96.71
2023-09-14T05:49:12.424Z,96.61
2023-09-14T05:50:12.354Z,96.61
2023-09-14T05:51:12.341Z,96.61
2023-09-14T05:52:12.372Z,96.51
2023-09-14T05:53:12.340Z,96.46
2023-09-14T05:54:12.430Z,96.26
2023-09-14T05:55:12.368Z,96.26
2023-09-14T05:56:12.360Z,96.15
2023-09-14T05:57:12.294Z,95.95
2023-09-14T05:58:12.452Z,95.75
2023-09-14T05:59:25.541Z,95.70
2023-09-14T06:00:13.243Z,95.70
2023-09-14T06:01:12.266Z,95.70
2023-09-14T06:02:12.280Z,95.50
2023-09-14T06:03:12.266Z,95.29
2023-09-14T06:04:12.245Z,94.98
2023-09-14T06:05:22.737Z,94.74
2023-09-14T06:06:13.182Z,94.64
2023-09-14T06:07:12.242Z,94.64
2023-09-14T06:08:12.163Z,94.64
2023-09-14T06:09:12.134Z,94.74
2023-09-14T06:10:12.177Z,94.74
2023-09-14T06:11:12.118Z,94.29
2023-09-14T06:12:12.111Z,93.98
2023-09-14T06:13:12.191Z,93.67
2023-09-14T06:14:12.856Z,93.57
2023-09-14T06:15:12.084Z,93.06
2023-09-14T06:16:12.529Z,92.86
2023-09-14T06:17:12.050Z,92.65
2023-09-14T06:18:12.074Z,92.65
2023-09-14T06:19:12.045Z,92.65
2023-09-14T06:20:12.019Z,92.71
2023-09-14T06:21:12.012Z,92.71
2023-09-14T06:22:12.055Z,92.91
2023-09-14T06:23:11.990Z,92.91
2023-09-14T06:24:11.973Z,92.81
2023-09-14T06:25:12.009Z,92.50
2023-09-14T06:26:11.957Z,92.30
2023-09-14T06:27:11.938Z,91.89
2023-09-14T06:28:12.042Z,92.00
2023-09-14T06:29:11.913Z,92.16
2023-09-14T06:30:12.850Z,92.36
2023-09-14T06:31:11.953Z,92.26
2023-09-14T06:32:11.892Z,91.96
2023-09-14T06:33:11.947Z,91.75
2023-09-14T06:34:11.913Z,91.35
2023-09-14T06:35:12.593Z,90.99
2023-09-14T06:36:12.773Z,90.79
2023-09-14T06:37:11.927Z,90.79
2023-09-14T06:38:11.812Z,90.89
2023-09-14T06:39:11.806Z,90.59
2023-09-14T06:40:11.831Z,90.48
2023-09-14T06:41:11.784Z,90.34
2023-09-14T06:42:11.765Z,90.14
2023-09-14T06:43:11.828Z,89.83
2023-09-14T06:44:11.774Z,89.83
2023-09-14T06:45:11.781Z,89.94
2023-09-14T06:46:11.754Z,90.03
2023-09-14T06:47:11.747Z,90.03
2023-09-14T06:48:11.733Z,90.14
2023-09-14T06:49:11.720Z,89.99
2023-09-14T06:50:11.699Z,89.99
2023-09-14T06:51:11.669Z,89.79
2023-09-14T06:52:11.892Z,89.59
2023-09-14T06:53:11.643Z,89.14
2023-09-14T06:54:11.640Z,88.83
2023-09-14T06:55:12.518Z,88.63
2023-09-14T06:56:11.682Z,88.32
2023-09-14T06:57:11.702Z,88.63
2023-09-14T06:58:11.646Z,88.89
2023-09-14T06:59:11.581Z,87.67
2023-09-14T07:00:11.572Z,86.80
2023-09-14T07:01:11.603Z,86.65
2023-09-14T07:02:11.569Z,86.45
2023-09-14T07:03:11.930Z,86.76
2023-09-14T07:04:11.695Z,86.76
2023-09-14T07:05:11.515Z,86.86
2023-09-14T07:06:11.493Z,87.47
2023-09-14T07:07:11.542Z,88.18
2023-09-14T07:08:11.475Z,88.48
2023-09-14T07:09:11.481Z,88.54
2023-09-14T07:10:11.499Z,88.44
2023-09-14T07:11:11.436Z,87.93
2023-09-14T07:12:11.447Z,86.92
2023-09-14T07:13:11.446Z,85.39
2023-09-14T07:14:11.409Z,85.29
2023-09-14T07:15:11.433Z,85.55
2023-09-14T07:16:12.377Z,85.66
2023-09-14T07:17:11.488Z,86.07
2023-09-14T07:18:11.386Z,86.16
2023-09-14T07:19:11.420Z,86.53
2023-09-14T07:20:11.344Z,86.43
2023-09-14T07:21:11.329Z,86.13
2023-09-14T07:22:11.378Z,85.72
2023-09-14T07:23:11.305Z,84.91
2023-09-14T07:24:11.292Z,84.66
2023-09-14T07:25:11.298Z,84.80
2023-09-14T07:26:11.270Z,84.80
2023-09-14T07:27:11.244Z,85.01
2023-09-14T07:28:11.313Z,84.91
2023-09-14T07:29:11.228Z,85.47
2023-09-14T07:30:11.214Z,85.47
2023-09-14T07:31:11.317Z,85.68
2023-09-14T07:32:11.247Z,85.27
2023-09-14T07:33:11.196Z,84.97
2023-09-14T07:34:11.225Z,85.27
2023-09-14T07:35:11.174Z,85.47
2023-09-14T07:36:11.907Z,83.65
2023-09-14T07:37:12.135Z,81.27
2023-09-14T07:38:11.175Z,83.00
2023-09-14T07:39:11.141Z,83.61
2023-09-14T07:40:11.146Z,83.51
2023-09-14T07:41:11.095Z,83.06
2023-09-14T07:42:11.076Z,83.47
2023-09-14T07:43:11.164Z,83.77
2023-09-14T07:44:11.060Z,83.26
2023-09-14T07:45:11.053Z,82.15
2023-09-14T07:46:11.081Z,82.42
2023-09-14T07:47:11.045Z,80.79
2023-09-14T07:48:11.142Z,80.29
2023-09-14T07:49:11.034Z,80.79
2023-09-14T07:50:10.994Z,80.65
2023-09-14T07:51:10.990Z,79.64
2023-09-14T07:52:11.300Z,80.65
2023-09-14T07:53:10.970Z,80.39
2023-09-14T07:54:10.952Z,78.36
2023-09-14T07:55:11.027Z,80.35
2023-09-14T07:56:11.387Z,79.13
2023-09-14T07:57:11.627Z,79.00
2023-09-14T07:58:11.892Z,80.41
2023-09-14T07:59:10.905Z,80.11
2023-09-14T08:00:10.880Z,80.62
2023-09-14T08:01:10.898Z,81.52
2023-09-14T08:02:10.949Z,80.21
2023-09-14T08:03:10.991Z,80.88
2023-09-14T08:04:11.030Z,80.68
2023-09-14T08:05:10.907Z,80.58
2023-09-14T08:06:10.834Z,79.57
2023-09-14T08:07:10.828Z,79.43
2023-09-14T08:08:10.800Z,80.13
2023-09-14T08:09:10.778Z,80.04
2023-09-14T08:10:10.813Z,77.81
2023-09-14T08:11:10.746Z,78.52
2023-09-14T08:12:10.744Z,76.56
2023-09-14T08:13:10.767Z,77.77
2023-09-14T08:14:10.736Z,77.47
2023-09-14T08:15:10.708Z,78.28
2023-09-14T08:16:10.754Z,78.95
2023-09-14T08:17:11.532Z,77.53
2023-09-14T08:18:11.481Z,76.72
2023-09-14T08:19:10.724Z,77.73
2023-09-14T08:20:10.687Z,76.86
2023-09-14T08:21:10.644Z,76.86
2023-09-14T08:22:10.729Z,77.67
2023-09-14T08:23:10.614Z,77.77
2023-09-14T08:24:10.632Z,78.78
2023-09-14T08:25:10.637Z,76.35
2023-09-14T08:26:10.592Z,76.22
2023-09-14T08:27:10.591Z,76.32
2023-09-14T08:28:10.627Z,76.52
2023-09-14T08:29:10.558Z,77.13
2023-09-14T08:30:10.568Z,77.23
2023-09-14T08:31:10.652Z,76.93
2023-09-14T08:32:10.665Z,76.79
2023-09-14T08:33:13.579Z,76.18
2023-09-14T08:34:10.568Z,76.69
2023-09-14T08:35:10.503Z,77.29
2023-09-14T08:36:10.492Z,77.70
2023-09-14T08:37:10.559Z,78.10
2023-09-14T08:38:10.506Z,77.50
2023-09-14T08:39:16.513Z,75.37
2023-09-14T08:40:11.473Z,75.07
2023-09-14T08:41:10.464Z,75.37
2023-09-14T08:42:10.436Z,75.48
2023-09-14T08:43:10.461Z,75.98
2023-09-14T08:44:10.410Z,76.18
2023-09-14T08:45:10.398Z,75.54
2023-09-14T08:46:10.408Z,75.95
2023-09-14T08:47:10.380Z,75.54
2023-09-14T08:48:10.378Z,75.31
2023-09-14T08:49:10.430Z,74.80
2023-09-14T08:50:10.324Z,74.19
2023-09-14T08:51:10.314Z,73.99
2023-09-14T08:52:10.319Z,73.69
2023-09-14T08:53:10.293Z,74.80
2023-09-14T08:54:16.714Z,74.96
2023-09-14T08:55:11.308Z,75.07
2023-09-14T08:56:10.261Z,74.46
2023-09-14T08:57:10.780Z,73.92
2023-09-14T08:58:11.198Z,74.02
2023-09-14T08:59:10.738Z,73.32
2023-09-14T09:00:10.227Z,72.91
2023-09-14T09:01:10.252Z,71.20
2023-09-14T09:02:10.267Z,71.80
2023-09-14T09:03:10.209Z,72.20
2023-09-14T09:04:10.290Z,72.31
2023-09-14T09:05:10.311Z,72.38
2023-09-14T09:06:10.176Z,72.07
2023-09-14T09:07:10.204Z,71.94
2023-09-14T09:08:10.160Z,71.23
2023-09-14T09:09:10.110Z,70.12
2023-09-14T09:10:10.173Z,70.32
2023-09-14T09:11:10.094Z,69.99
2023-09-14T09:12:10.084Z,69.09
2023-09-14T09:13:10.126Z,69.79
2023-09-14T09:14:10.068Z,69.96
2023-09-14T09:15:10.037Z,70.66
2023-09-14T09:16:10.073Z,70.36
2023-09-14T09:17:10.078Z,70.23
2023-09-14T09:18:10.066Z,69.96
2023-09-14T09:19:10.295Z,67.34
2023-09-14T09:20:10.248Z,69.05
2023-09-14T09:21:09.980Z,69.45
2023-09-14T09:22:10.011Z,68.82
2023-09-14T09:23:09.973Z,67.41
2023-09-14T09:24:09.947Z,68.91
2023-09-14T09:25:09.982Z,67.11
2023-09-14T09:26:09.933Z,66.77
2023-09-14T09:27:09.930Z,68.59
2023-09-14T09:28:09.966Z,68.68
2023-09-14T09:29:09.880Z,68.75
2023-09-14T09:30:09.882Z,67.74
2023-09-14T09:31:09.968Z,66.00
2023-09-14T09:32:09.911Z,65.91
2023-09-14T09:33:09.874Z,65.91
2023-09-14T09:34:09.872Z,67.91
2023-09-14T09:35:09.815Z,66.47
2023-09-14T09:36:09.993Z,64.47
2023-09-14T09:37:09.838Z,62.89
2023-09-14T09:38:09.785Z,64.70
2023-09-14T09:39:09.784Z,66.17
2023-09-14T09:40:09.883Z,65.77
2023-09-14T09:41:09.757Z,66.58
2023-09-14T09:42:09.754Z,63.56
2023-09-14T09:43:09.784Z,62.56
2023-09-14T09:44:09.737Z,62.19
2023-09-14T09:45:09.697Z,64.40
2023-09-14T09:46:09.805Z,63.17
2023-09-14T09:47:09.706Z,63.46
2023-09-14T09:48:09.690Z,63.67
2023-09-14T09:49:09.675Z,62.96
2023-09-14T09:50:09.669Z,64.64
2023-09-14T09:51:09.642Z,66.05
2023-09-14T09:52:09.704Z,64.21
2023-09-14T09:53:09.690Z,63.70
2023-09-14T09:54:09.626Z,62.87
2023-09-14T09:55:09.635Z,63.07
2023-09-14T09:56:09.640Z,64.48
2023-09-14T09:57:09.594Z,64.25
2023-09-14T09:58:09.608Z,62.74
2023-09-14T09:59:09.559Z,61.24
2023-09-14T10:00:09.611Z,62.71
2023-09-14T10:01:09.717Z,60.51
2023-09-14T10:02:11.540Z,60.71
2023-09-14T10:03:09.592Z,60.41
2023-09-14T10:04:09.548Z,60.61
2023-09-14T10:05:09.498Z,59.81
2023-09-14T10:06:09.489Z,59.91
2023-09-14T10:07:09.486Z,59.61
2023-09-14T10:08:09.459Z,60.21
2023-09-14T10:09:09.439Z,58.50
2023-09-14T10:10:09.462Z,58.30
2023-09-14T10:11:09.417Z,59.31
2023-09-14T10:12:09.401Z,60.71
2023-09-14T10:13:09.421Z,60.31
2023-09-14T10:14:09.432Z,59.81
2023-09-14T10:15:09.381Z,59.11
2023-09-14T10:16:09.518Z,59.13
2023-09-14T10:17:09.541Z,57.13
2023-09-14T10:18:09.380Z,58.63
2023-09-14T10:19:09.416Z,58.53
2023-09-14T10:20:10.206Z,58.16
2023-09-14T10:21:10.157Z,58.36
2023-09-14T10:22:09.351Z,57.89
2023-09-14T10:23:09.283Z,58.29
2023-09-14T10:24:09.302Z,59.19
2023-09-14T10:25:09.300Z,60.69
2023-09-14T10:26:09.254Z,61.60
2023-09-14T10:27:09.227Z,59.59
2023-09-14T10:28:09.258Z,59.59
2023-09-14T10:29:09.256Z,56.38
2023-09-14T10:30:09.218Z,57.79
2023-09-14T10:31:09.326Z,57.08
2023-09-14T10:32:09.269Z,57.39
2023-09-14T10:33:09.177Z,56.78
2023-09-14T10:34:09.214Z,56.58
2023-09-14T10:35:09.165Z,54.27
2023-09-14T10:36:09.190Z,55.28
2023-09-14T10:37:09.217Z,56.98
2023-09-14T10:38:09.145Z,56.85
2023-09-14T10:39:09.103Z,57.56
2023-09-14T10:40:10.121Z,56.26
2023-09-14T10:41:09.114Z,55.43
2023-09-14T10:42:09.098Z,54.72
2023-09-14T10:43:09.182Z,55.63
2023-09-14T10:44:09.065Z,53.82
2023-09-14T10:45:09.042Z,52.92
2023-09-14T10:46:09.081Z,56.65
2023-09-14T10:47:09.148Z,55.55
2023-09-14T10:48:09.138Z,57.93
2023-09-14T10:49:09.042Z,53.92
2023-09-14T10:50:08.996Z,54.43
2023-09-14T10:51:08.977Z,54.72
2023-09-14T10:52:09.072Z,57.90
2023-09-14T10:53:08.953Z,52.69
2023-09-14T10:54:09.008Z,51.32
2023-09-14T10:55:08.976Z,52.12
2023-09-14T10:56:08.912Z,51.99
2023-09-14T10:57:08.913Z,53.00
2023-09-14T10:58:08.952Z,52.80
2023-09-14T10:59:08.893Z,52.29
2023-09-14T11:00:23.480Z,53.80
2023-09-14T11:02:20.738Z,52.80
2023-09-14T11:03:21.624Z,56.90
2023-09-14T11:04:09.949Z,57.10
2023-09-14T11:05:09.335Z,55.67
2023-09-14T11:06:09.083Z,52.77
2023-09-14T11:07:09.548Z,55.57
2023-09-14T11:08:08.970Z,54.97
2023-09-14T11:09:09.617Z,50.96
2023-09-14T11:10:09.306Z,52.57
2023-09-14T11:11:09.490Z,51.67
2023-09-14T11:12:09.900Z,53.17
2023-09-14T11:13:08.842Z,51.87
2023-09-14T11:14:09.376Z,55.57
2023-09-14T11:15:09.836Z,57.48
2023-09-14T11:16:09.068Z,53.94
2023-09-14T11:17:08.862Z,52.24
2023-09-14T11:18:09.836Z,53.05
2023-09-14T11:19:09.227Z,51.64
2023-09-14T11:20:09.635Z,56.15
2023-09-14T11:21:10.590Z,55.05
2023-09-14T11:22:10.416Z,54.52
2023-09-14T11:23:08.762Z,50.42
2023-09-14T11:24:09.649Z,54.32
2023-09-14T11:25:17.220Z,51.72
2023-09-14T11:26:19.478Z,54.22
2023-09-14T11:27:11.498Z,52.62
2023-09-14T11:28:08.712Z,53.42
2023-09-14T11:29:09.176Z,51.12
2023-09-14T11:30:08.770Z,51.82
2023-09-14T11:31:08.694Z,52.82
2023-09-14T11:32:11.618Z,52.92
2023-09-14T11:33:10.218Z,52.42
2023-09-14T11:34:10.306Z,52.22
2023-09-14T11:36:09.021Z,51.34
2023-09-14T11:37:13.231Z,52.64
2023-09-14T11:38:09.117Z,52.94
2023-09-14T11:39:09.516Z,52.55
2023-09-14T11:40:10.838Z,52.97
2023-09-14T11:41:24.192Z,53.87
2023-09-14T11:42:15.473Z,54.27
2023-09-14T11:43:11.978Z,54.00
2023-09-14T11:44:33.116Z,52.69
2023-09-14T11:45:12.678Z,54.00
2023-09-14T11:46:11.843Z,56.90
2023-09-14T11:47:12.494Z,58.40
2023-09-14T11:50:08.822Z,53.52
2023-09-14T11:51:08.452Z,54.82
2023-09-14T11:52:08.291Z,55.22
2023-09-14T11:53:08.394Z,56.43
2023-09-14T11:54:08.291Z,51.34
2023-09-14T11:55:08.264Z,53.64
2023-09-14T11:56:08.287Z,52.26
2023-09-14T11:57:08.242Z,53.67
2023-09-14T11:58:08.233Z,55.95
2023-09-14T11:59:08.228Z,54.72
2023-09-14T12:00:08.201Z,53.92
2023-09-14T12:01:08.262Z,53.89
2023-09-14T12:02:09.122Z,53.50
2023-09-14T12:03:09.067Z,53.87
2023-09-14T12:04:08.266Z,54.57
2023-09-14T12:05:08.162Z,52.94
2023-09-14T12:06:08.927Z,54.22
2023-09-14T12:07:08.133Z,51.62
2023-09-14T12:08:08.112Z,55.40
2023-09-14T12:09:20.560Z,54.69
2023-09-14T12:10:09.150Z,55.19
2023-09-14T12:11:08.081Z,52.17
2023-09-14T12:12:08.067Z,48.77
2023-09-14T12:13:08.059Z,47.77
2023-09-14T12:14:08.046Z,48.69
2023-09-14T12:15:08.039Z,51.82
2023-09-14T12:16:08.135Z,49.82
2023-09-14T12:17:08.066Z,49.11
2023-09-14T12:18:08.089Z,48.64
2023-09-14T12:19:08.036Z,49.34
2023-09-14T12:20:07.984Z,53.24
2023-09-14T12:21:07.985Z,49.41
2023-09-14T12:22:07.965Z,49.72
2023-09-14T12:23:08.900Z,50.02
2023-09-14T12:24:08.809Z,49.32
2023-09-14T12:25:07.944Z,48.92
2023-09-14T12:26:07.925Z,52.42
2023-09-14T12:27:08.004Z,54.60
2023-09-14T12:28:07.903Z,52.87
2023-09-14T12:29:07.912Z,50.27
2023-09-14T12:30:07.882Z,50.24
2023-09-14T12:31:08.189Z,49.25
2023-09-14T12:32:08.135Z,48.55
2023-09-14T12:33:07.960Z,48.02
2023-09-14T12:34:07.932Z,51.52
2023-09-14T12:35:07.813Z,48.05
2023-09-14T12:36:07.813Z,50.45
2023-09-14T12:37:07.796Z,51.34
2023-09-14T12:38:07.784Z,50.67
2023-09-14T12:39:07.781Z,50.87
2023-09-14T12:40:07.771Z,49.67
2023-09-14T12:41:07.764Z,50.47
2023-09-14T12:42:07.757Z,50.17
2023-09-14T12:43:08.721Z,51.27
2023-09-14T12:44:08.675Z,50.37
2023-09-14T12:45:08.758Z,50.47
2023-09-14T12:46:07.797Z,53.07
2023-09-14T12:47:07.687Z,52.17
2023-09-14T12:48:07.698Z,50.77
2023-09-14T12:49:08.500Z,48.77
2023-09-14T12:50:08.461Z,50.07
2023-09-14T12:51:07.647Z,51.09
2023-09-14T12:52:07.651Z,53.79
2023-09-14T12:53:07.633Z,50.79
2023-09-14T12:54:08.465Z,50.27
2023-09-14T12:55:07.649Z,50.67
2023-09-14T12:56:07.595Z,51.27